sensor_id;sensor_type;location;lat;lon;timestamp;temperature;humidity
25973;DHT22;13765;51.166;4.466;2022-12-24T00:00:33;11.60;99.90
25973;DHT22;13765;51.166;4.466;2022-12-24T00:03:00;11.60;99.90
25973;DHT22;13765;51.166;4.466;2022-12-24T00:05:26;11.60;99.90
25973;DHT22;13765;51.166;4.466;2022-12-24T00:07:52;11.60;99.90
25973;DHT22;13765;51.166;4.466;2022-12-24T00:10:18;11.50;99.90
25973;DHT22;13765;51.166;4.466;2022-12-24T00:12:43;11.50;99.90
25973;DHT22;13765;51.166;4.466;2022-12-24T00:15:09;11.40;99.90
25973;DHT22;13765;51.166;4.466;2022-12-24T00:17:38;11.50;99.90
25973;DHT22;13765;51.166;4.466;2022-12-24T00:20:07;11.40;99.90
25973;DHT22;13765;51.166;4.466;2022-12-24T00:22:33;11.40;99.90
25973;DHT22;13765;51.166;4.466;2022-12-24T00:24:59;11.40;99.90
25973;DHT22;13765;51.166;4.466;2022-12-24T00:27:25;11.40;99.90
25973;DHT22;13765;51.166;4.466;2022-12-24T00:29:53;11.30;99.90
25973;DHT22;13765;51.166;4.466;2022-12-24T00:32:21;11.20;99.90
25973;DHT22;13765;51.166;4.466;2022-12-24T00:34:47;11.10;99.90
25973;DHT22;13765;51.166;4.466;2022-12-24T00:37:13;11.10;99.90
25973;DHT22;13765;51.166;4.466;2022-12-24T00:39:41;11.10;99.90
25973;DHT22;13765;51.166;4.466;2022-12-24T00:42:11;11.10;99.90
25973;DHT22;13765;51.166;4.466;2022-12-24T00:44:37;11.10;99.90
25973;DHT22;13765;51.166;4.466;2022-12-24T00:47:03;11.10;99.90
25973;DHT22;13765;51.166;4.466;2022-12-24T00:49:29;11.10;99.90
25973;DHT22;13765;51.166;4.466;2022-12-24T00:51:55;11.10;99.90
25973;DHT22;13765;51.166;4.466;2022-12-24T00:54:21;11.10;99.90
25973;DHT22;13765;51.166;4.466;2022-12-24T00:56:50;11.00;99.90
25973;DHT22;13765;51.166;4.466;2022-12-24T00:59:17;11.10;99.90
25973;DHT22;13765;51.166;4.466;2022-12-24T01:01:46;11.20;99.90
25973;DHT22;13765;51.166;4.466;2022-12-24T01:04:14;11.20;99.90
25973;DHT22;13765;51.166;4.466;2022-12-24T01:06:58;11.30;99.90
25973;DHT22;13765;51.166;4.466;2022-12-24T01:09:26;11.30;99.90
25973;DHT22;13765;51.166;4.466;2022-12-24T01:11:52;11.20;99.90
25973;DHT22;13765;51.166;4.466;2022-12-24T01:14:18;11.20;99.90
25973;DHT22;13765;51.166;4.466;2022-12-24T01:16:44;11.30;99.90
25973;DHT22;13765;51.166;4.466;2022-12-24T01:19:13;11.30;99.90
25973;DHT22;13765;51.166;4.466;2022-12-24T01:21:38;11.40;99.90
25973;DHT22;13765;51.166;4.466;2022-12-24T01:24:12;11.40;99.90
25973;DHT22;13765;51.166;4.466;2022-12-24T01:26:41;11.50;99.90
25973;DHT22;13765;51.166;4.466;2022-12-24T01:29:10;11.50;99.90
25973;DHT22;13765;51.166;4.466;2022-12-24T01:31:36;11.50;99.90
25973;DHT22;13765;51.166;4.466;2022-12-24T01:34:02;11.40;99.90
25973;DHT22;13765;51.166;4.466;2022-12-24T01:36:29;11.40;99.90
25973;DHT22;13765;51.166;4.466;2022-12-24T01:38:58;11.30;99.90
25973;DHT22;13765;51.166;4.466;2022-12-24T01:41:24;11.40;99.90
25973;DHT22;13765;51.166;4.466;2022-12-24T01:44:25;11.40;99.90
25973;DHT22;13765;51.166;4.466;2022-12-24T01:47:13;11.40;99.90
25973;DHT22;13765;51.166;4.466;2022-12-24T01:49:50;11.40;99.90
25973;DHT22;13765;51.166;4.466;2022-12-24T01:52:22;11.50;99.90
25973;DHT22;13765;51.166;4.466;2022-12-24T01:54:50;11.60;99.90
25973;DHT22;13765;51.166;4.466;2022-12-24T01:57:20;11.60;99.90
25973;DHT22;13765;51.166;4.466;2022-12-24T01:59:51;11.70;99.90
25973;DHT22;13765;51.166;4.466;2022-12-24T02:02:19;11.50;99.90
25973;DHT22;13765;51.166;4.466;2022-12-24T02:04:53;11.40;99.90
25973;DHT22;13765;51.166;4.466;2022-12-24T02:07:21;11.40;99.90
25973;DHT22;13765;51.166;4.466;2022-12-24T02:09:48;11.40;99.90
25973;DHT22;13765;51.166;4.466;2022-12-24T02:12:16;11.30;99.90
25973;DHT22;13765;51.166;4.466;2022-12-24T02:14:42;11.40;99.90
25973;DHT22;13765;51.166;4.466;2022-12-24T02:17:28;11.40;99.90
25973;DHT22;13765;51.166;4.466;2022-12-24T02:37:21;11.30;99.90
25973;DHT22;13765;51.166;4.466;2022-12-24T02:42:33;11.30;99.90
25973;DHT22;13765;51.166;4.466;2022-12-24T02:45:06;11.20;99.90
25973;DHT22;13765;51.166;4.466;2022-12-24T02:47:33;11.30;99.90
25973;DHT22;13765;51.166;4.466;2022-12-24T02:50:04;11.30;99.90
25973;DHT22;13765;51.166;4.466;2022-12-24T02:52:35;11.30;99.90
25973;DHT22;13765;51.166;4.466;2022-12-24T02:55:08;11.30;99.90
25973;DHT22;13765;51.166;4.466;2022-12-24T03:03:34;11.40;99.90
25973;DHT22;13765;51.166;4.466;2022-12-24T03:06:30;11.40;99.90
25973;DHT22;13765;51.166;4.466;2022-12-24T03:11:40;11.20;99.90
25973;DHT22;13765;51.166;4.466;2022-12-24T03:14:11;11.30;99.90
25973;DHT22;13765;51.166;4.466;2022-12-24T03:16:44;11.30;99.90
25973;DHT22;13765;51.166;4.466;2022-12-24T03:19:16;11.20;99.90
25973;DHT22;13765;51.166;4.466;2022-12-24T03:21:45;11.30;99.90
25973;DHT22;13765;51.166;4.466;2022-12-24T03:24:12;11.20;99.90
25973;DHT22;13765;51.166;4.466;2022-12-24T03:26:38;11.30;99.90
25973;DHT22;13765;51.166;4.466;2022-12-24T03:29:06;11.40;99.90
25973;DHT22;13765;51.166;4.466;2022-12-24T03:31:47;11.40;99.90
25973;DHT22;13765;51.166;4.466;2022-12-24T03:34:16;11.40;99.90
25973;DHT22;13765;51.166;4.466;2022-12-24T03:36:46;11.40;99.90
25973;DHT22;13765;51.166;4.466;2022-12-24T03:39:13;11.50;99.90
25973;DHT22;13765;51.166;4.466;2022-12-24T03:41:41;11.50;99.90
25973;DHT22;13765;51.166;4.466;2022-12-24T03:44:07;11.60;99.90
25973;DHT22;13765;51.166;4.466;2022-12-24T03:46:32;11.60;99.90
25973;DHT22;13765;51.166;4.466;2022-12-24T03:48:58;11.60;99.90
25973;DHT22;13765;51.166;4.466;2022-12-24T03:51:27;11.60;99.90
25973;DHT22;13765;51.166;4.466;2022-12-24T03:53:55;11.60;99.90
25973;DHT22;13765;51.166;4.466;2022-12-24T03:56:22;11.60;99.90
25973;DHT22;13765;51.166;4.466;2022-12-24T03:58:51;11.60;99.90
25973;DHT22;13765;51.166;4.466;2022-12-24T04:01:22;11.60;99.90
25973;DHT22;13765;51.166;4.466;2022-12-24T04:03:48;11.50;99.90
25973;DHT22;13765;51.166;4.466;2022-12-24T04:06:15;11.50;99.90
25973;DHT22;13765;51.166;4.466;2022-12-24T04:08:42;11.50;99.90
25973;DHT22;13765;51.166;4.466;2022-12-24T04:11:11;11.40;99.90
25973;DHT22;13765;51.166;4.466;2022-12-24T04:13:38;11.50;99.90
25973;DHT22;13765;51.166;4.466;2022-12-24T04:16:10;11.50;99.90
25973;DHT22;13765;51.166;4.466;2022-12-24T04:18:37;11.50;99.90
25973;DHT22;13765;51.166;4.466;2022-12-24T04:21:04;11.40;99.90
25973;DHT22;13765;51.166;4.466;2022-12-24T04:23:34;11.40;99.90
25973;DHT22;13765;51.166;4.466;2022-12-24T04:26:05;11.40;99.90
25973;DHT22;13765;51.166;4.466;2022-12-24T04:28:34;11.50;99.90
25973;DHT22;13765;51.166;4.466;2022-12-24T04:31:03;11.50;99.90
25973;DHT22;13765;51.166;4.466;2022-12-24T04:33:29;11.40;99.90
25973;DHT22;13765;51.166;4.466;2022-12-24T04:36:00;11.50;99.90
25973;DHT22;13765;51.166;4.466;2022-12-24T04:38:28;11.50;99.90
25973;DHT22;13765;51.166;4.466;2022-12-24T04:41:03;11.60;99.90
25973;DHT22;13765;51.166;4.466;2022-12-24T04:43:29;11.50;99.90
25973;DHT22;13765;51.166;4.466;2022-12-24T04:46:08;11.50;99.90
25973;DHT22;13765;51.166;4.466;2022-12-24T04:48:36;11.50;99.90
25973;DHT22;13765;51.166;4.466;2022-12-24T04:51:06;11.40;99.90
25973;DHT22;13765;51.166;4.466;2022-12-24T04:53:33;11.60;99.90
25973;DHT22;13765;51.166;4.466;2022-12-24T04:56:02;11.50;99.90
25973;DHT22;13765;51.166;4.466;2022-12-24T04:58:28;11.50;99.90
25973;DHT22;13765;51.166;4.466;2022-12-24T05:01:03;11.40;99.90
25973;DHT22;13765;51.166;4.466;2022-12-24T05:03:31;11.40;99.90
25973;DHT22;13765;51.166;4.466;2022-12-24T05:06:08;11.30;99.90
25973;DHT22;13765;51.166;4.466;2022-12-24T05:08:35;11.30;99.90
25973;DHT22;13765;51.166;4.466;2022-12-24T05:11:03;11.10;99.90
25973;DHT22;13765;51.166;4.466;2022-12-24T05:13:29;11.10;99.90
25973;DHT22;13765;51.166;4.466;2022-12-24T05:15:57;11.00;99.90
25973;DHT22;13765;51.166;4.466;2022-12-24T05:18:23;11.00;99.90
25973;DHT22;13765;51.166;4.466;2022-12-24T05:20:51;11.00;99.90
25973;DHT22;13765;51.166;4.466;2022-12-24T05:23:22;11.00;99.90
25973;DHT22;13765;51.166;4.466;2022-12-24T05:26:17;11.00;99.90
25973;DHT22;13765;51.166;4.466;2022-12-24T05:28:51;11.00;99.90
25973;DHT22;13765;51.166;4.466;2022-12-24T05:31:20;10.90;99.90
25973;DHT22;13765;51.166;4.466;2022-12-24T05:33:47;10.90;99.90
25973;DHT22;13765;51.166;4.466;2022-12-24T05:36:15;10.90;99.90
25973;DHT22;13765;51.166;4.466;2022-12-24T05:38:43;11.10;99.90
25973;DHT22;13765;51.166;4.466;2022-12-24T05:41:09;11.00;99.90
25973;DHT22;13765;51.166;4.466;2022-12-24T05:43:36;10.90;99.90
25973;DHT22;13765;51.166;4.466;2022-12-24T05:46:05;10.80;99.90
25973;DHT22;13765;51.166;4.466;2022-12-24T05:48:30;10.80;99.90
25973;DHT22;13765;51.166;4.466;2022-12-24T05:50:57;10.70;99.90
25973;DHT22;13765;51.166;4.466;2022-12-24T05:53:23;10.70;99.90
25973;DHT22;13765;51.166;4.466;2022-12-24T05:55:48;10.70;99.90
25973;DHT22;13765;51.166;4.466;2022-12-24T05:58:21;10.70;99.90
25973;DHT22;13765;51.166;4.466;2022-12-24T06:00:51;10.80;99.90
25973;DHT22;13765;51.166;4.466;2022-12-24T06:03:17;10.80;99.90
25973;DHT22;13765;51.166;4.466;2022-12-24T06:05:46;10.80;99.90
25973;DHT22;13765;51.166;4.466;2022-12-24T06:08:14;10.80;99.90
25973;DHT22;13765;51.166;4.466;2022-12-24T06:10:40;10.80;99.90
25973;DHT22;13765;51.166;4.466;2022-12-24T06:13:06;10.70;99.90
25973;DHT22;13765;51.166;4.466;2022-12-24T06:15:34;10.80;99.90
25973;DHT22;13765;51.166;4.466;2022-12-24T06:18:00;10.80;99.90
25973;DHT22;13765;51.166;4.466;2022-12-24T06:20:26;10.80;99.90
25973;DHT22;13765;51.166;4.466;2022-12-24T06:22:55;10.80;99.90
25973;DHT22;13765;51.166;4.466;2022-12-24T06:25:23;10.80;99.90
25973;DHT22;13765;51.166;4.466;2022-12-24T06:27:50;10.80;99.90
25973;DHT22;13765;51.166;4.466;2022-12-24T06:30:17;10.90;99.90
25973;DHT22;13765;51.166;4.466;2022-12-24T06:32:47;10.90;99.90
25973;DHT22;13765;51.166;4.466;2022-12-24T06:35:13;10.90;99.90
25973;DHT22;13765;51.166;4.466;2022-12-24T06:37:41;10.90;99.90
25973;DHT22;13765;51.166;4.466;2022-12-24T06:40:08;10.80;99.90
25973;DHT22;13765;51.166;4.466;2022-12-24T06:42:34;10.70;99.90
25973;DHT22;13765;51.166;4.466;2022-12-24T06:45:00;10.80;99.90
25973;DHT22;13765;51.166;4.466;2022-12-24T06:47:28;10.90;99.90
25973;DHT22;13765;51.166;4.466;2022-12-24T06:49:55;10.80;99.90
25973;DHT22;13765;51.166;4.466;2022-12-24T06:52:22;10.80;99.90
25973;DHT22;13765;51.166;4.466;2022-12-24T06:54:48;10.90;99.90
25973;DHT22;13765;51.166;4.466;2022-12-24T06:57:17;10.80;99.90
25973;DHT22;13765;51.166;4.466;2022-12-24T06:59:45;10.90;99.90
25973;DHT22;13765;51.166;4.466;2022-12-24T07:02:13;10.90;99.90
25973;DHT22;13765;51.166;4.466;2022-12-24T07:04:39;10.90;99.90
25973;DHT22;13765;51.166;4.466;2022-12-24T07:07:08;10.90;99.90
25973;DHT22;13765;51.166;4.466;2022-12-24T07:09:34;10.90;99.90
25973;DHT22;13765;51.166;4.466;2022-12-24T07:12:00;10.80;99.90
25973;DHT22;13765;51.166;4.466;2022-12-24T07:14:31;10.80;99.90
25973;DHT22;13765;51.166;4.466;2022-12-24T07:16:56;10.80;99.90
25973;DHT22;13765;51.166;4.466;2022-12-24T07:19:22;10.80;99.90
25973;DHT22;13765;51.166;4.466;2022-12-24T07:21:52;10.80;99.90
25973;DHT22;13765;51.166;4.466;2022-12-24T07:24:18;10.80;99.90
25973;DHT22;13765;51.166;4.466;2022-12-24T07:27:04;10.80;99.90
25973;DHT22;13765;51.166;4.466;2022-12-24T07:29:34;10.90;99.90
25973;DHT22;13765;51.166;4.466;2022-12-24T07:32:07;10.90;99.90
25973;DHT22;13765;51.166;4.466;2022-12-24T07:34:35;10.90;99.90
25973;DHT22;13765;51.166;4.466;2022-12-24T07:37:01;11.00;99.90
25973;DHT22;13765;51.166;4.466;2022-12-24T07:39:27;11.00;99.90
25973;DHT22;13765;51.166;4.466;2022-12-24T07:41:52;11.00;99.90
25973;DHT22;13765;51.166;4.466;2022-12-24T07:44:18;11.00;99.90
25973;DHT22;13765;51.166;4.466;2022-12-24T07:46:47;11.10;99.90
25973;DHT22;13765;51.166;4.466;2022-12-24T07:49:13;11.10;99.90
25973;DHT22;13765;51.166;4.466;2022-12-24T07:51:44;11.00;99.90
25973;DHT22;13765;51.166;4.466;2022-12-24T07:54:13;11.10;99.90
25973;DHT22;13765;51.166;4.466;2022-12-24T07:56:41;11.00;99.90
25973;DHT22;13765;51.166;4.466;2022-12-24T07:59:10;11.10;99.90
25973;DHT22;13765;51.166;4.466;2022-12-24T08:01:37;11.10;99.90
25973;DHT22;13765;51.166;4.466;2022-12-24T08:04:03;11.00;99.90
25973;DHT22;13765;51.166;4.466;2022-12-24T08:06:31;11.00;99.90
25973;DHT22;13765;51.166;4.466;2022-12-24T08:08:57;10.90;99.90
25973;DHT22;13765;51.166;4.466;2022-12-24T08:11:26;10.90;99.90
25973;DHT22;13765;51.166;4.466;2022-12-24T08:13:51;10.90;99.90
25973;DHT22;13765;51.166;4.466;2022-12-24T08:16:21;11.00;99.90
25973;DHT22;13765;51.166;4.466;2022-12-24T08:18:47;11.00;99.90
25973;DHT22;13765;51.166;4.466;2022-12-24T08:21:15;11.00;99.90
25973;DHT22;13765;51.166;4.466;2022-12-24T08:23:41;11.00;99.90
25973;DHT22;13765;51.166;4.466;2022-12-24T08:26:10;11.00;99.90
25973;DHT22;13765;51.166;4.466;2022-12-24T08:28:38;10.90;99.90
25973;DHT22;13765;51.166;4.466;2022-12-24T08:31:12;10.90;99.90
25973;DHT22;13765;51.166;4.466;2022-12-24T08:33:44;10.90;99.90
25973;DHT22;13765;51.166;4.466;2022-12-24T08:36:13;11.00;99.90
25973;DHT22;13765;51.166;4.466;2022-12-24T08:38:39;11.00;99.90
25973;DHT22;13765;51.166;4.466;2022-12-24T08:41:04;11.00;99.90
25973;DHT22;13765;51.166;4.466;2022-12-24T08:43:31;11.00;99.90
25973;DHT22;13765;51.166;4.466;2022-12-24T08:46:03;11.00;99.90
25973;DHT22;13765;51.166;4.466;2022-12-24T08:48:35;11.00;99.90
25973;DHT22;13765;51.166;4.466;2022-12-24T08:51:08;11.10;99.90
25973;DHT22;13765;51.166;4.466;2022-12-24T08:53:35;11.10;99.90
25973;DHT22;13765;51.166;4.466;2022-12-24T08:56:07;11.10;99.90
25973;DHT22;13765;51.166;4.466;2022-12-24T08:58:34;11.00;99.90
25973;DHT22;13765;51.166;4.466;2022-12-24T09:01:16;11.10;99.90
25973;DHT22;13765;51.166;4.466;2022-12-24T09:03:43;11.10;99.90
25973;DHT22;13765;51.166;4.466;2022-12-24T09:06:09;11.10;99.90
25973;DHT22;13765;51.166;4.466;2022-12-24T09:08:38;11.10;99.90
25973;DHT22;13765;51.166;4.466;2022-12-24T09:11:12;11.20;99.90
25973;DHT22;13765;51.166;4.466;2022-12-24T09:13:40;11.20;99.90
25973;DHT22;13765;51.166;4.466;2022-12-24T09:16:07;11.20;99.90
25973;DHT22;13765;51.166;4.466;2022-12-24T09:18:33;11.20;99.90
25973;DHT22;13765;51.166;4.466;2022-12-24T09:21:04;11.20;99.90
25973;DHT22;13765;51.166;4.466;2022-12-24T09:23:31;11.10;99.90
25973;DHT22;13765;51.166;4.466;2022-12-24T09:25:58;11.10;99.90
25973;DHT22;13765;51.166;4.466;2022-12-24T09:28:29;11.00;99.90
25973;DHT22;13765;51.166;4.466;2022-12-24T09:31:00;11.00;99.90
25973;DHT22;13765;51.166;4.466;2022-12-24T09:33:28;11.10;99.90
25973;DHT22;13765;51.166;4.466;2022-12-24T09:35:56;11.10;99.90
25973;DHT22;13765;51.166;4.466;2022-12-24T09:38:25;11.20;99.90
25973;DHT22;13765;51.166;4.466;2022-12-24T09:40:56;11.20;99.90
25973;DHT22;13765;51.166;4.466;2022-12-24T09:43:30;11.20;99.90
25973;DHT22;13765;51.166;4.466;2022-12-24T09:46:12;11.20;99.90
25973;DHT22;13765;51.166;4.466;2022-12-24T09:48:42;11.30;99.90
25973;DHT22;13765;51.166;4.466;2022-12-24T09:51:19;11.30;99.90
25973;DHT22;13765;51.166;4.466;2022-12-24T09:54:05;11.30;99.90
25973;DHT22;13765;51.166;4.466;2022-12-24T09:56:45;11.40;99.90
25973;DHT22;13765;51.166;4.466;2022-12-24T09:59:23;11.40;99.90
25973;DHT22;13765;51.166;4.466;2022-12-24T10:01:57;11.50;99.90
25973;DHT22;13765;51.166;4.466;2022-12-24T10:04:28;11.50;99.90
25973;DHT22;13765;51.166;4.466;2022-12-24T10:07:24;11.60;99.90
25973;DHT22;13765;51.166;4.466;2022-12-24T10:15:20;11.70;99.90
25973;DHT22;13765;51.166;4.466;2022-12-24T10:20:58;11.80;99.90
25973;DHT22;13765;51.166;4.466;2022-12-24T10:23:33;11.70;99.90
25973;DHT22;13765;51.166;4.466;2022-12-24T10:26:12;11.70;99.90
25973;DHT22;13765;51.166;4.466;2022-12-24T10:29:01;11.70;99.90
25973;DHT22;13765;51.166;4.466;2022-12-24T10:31:34;11.80;99.90
25973;DHT22;13765;51.166;4.466;2022-12-24T10:34:02;11.80;99.90
25973;DHT22;13765;51.166;4.466;2022-12-24T10:36:32;11.90;99.90
25973;DHT22;13765;51.166;4.466;2022-12-24T10:38:58;12.00;99.90
25973;DHT22;13765;51.166;4.466;2022-12-24T10:41:25;11.90;99.90
25973;DHT22;13765;51.166;4.466;2022-12-24T10:43:52;11.90;99.90
25973;DHT22;13765;51.166;4.466;2022-12-24T10:46:37;12.00;99.90
25973;DHT22;13765;51.166;4.466;2022-12-24T10:49:06;12.00;99.90
25973;DHT22;13765;51.166;4.466;2022-12-24T10:51:55;12.00;99.90
25973;DHT22;13765;51.166;4.466;2022-12-24T10:54:28;12.00;99.90
25973;DHT22;13765;51.166;4.466;2022-12-24T10:57:00;12.10;99.90
25973;DHT22;13765;51.166;4.466;2022-12-24T10:59:29;12.10;99.90
25973;DHT22;13765;51.166;4.466;2022-12-24T11:02:00;12.20;99.90
25973;DHT22;13765;51.166;4.466;2022-12-24T11:04:31;12.30;99.90
25973;DHT22;13765;51.166;4.466;2022-12-24T11:07:05;12.50;99.90
25973;DHT22;13765;51.166;4.466;2022-12-24T11:09:37;12.50;99.90
25973;DHT22;13765;51.166;4.466;2022-12-24T11:12:17;12.50;99.90
25973;DHT22;13765;51.166;4.466;2022-12-24T11:14:44;12.40;99.90
25973;DHT22;13765;51.166;4.466;2022-12-24T11:17:20;12.40;99.90
25973;DHT22;13765;51.166;4.466;2022-12-24T11:19:49;12.40;99.90
25973;DHT22;13765;51.166;4.466;2022-12-24T11:22:31;12.30;99.90
25973;DHT22;13765;51.166;4.466;2022-12-24T11:25:19;12.30;99.90
25973;DHT22;13765;51.166;4.466;2022-12-24T11:27:49;12.60;99.90
25973;DHT22;13765;51.166;4.466;2022-12-24T11:30:21;12.60;99.90
25973;DHT22;13765;51.166;4.466;2022-12-24T11:35:29;12.40;99.90
25973;DHT22;13765;51.166;4.466;2022-12-24T11:40:30;12.40;99.90
25973;DHT22;13765;51.166;4.466;2022-12-24T11:42:59;12.40;99.90
25973;DHT22;13765;51.166;4.466;2022-12-24T11:45:30;12.50;99.90
25973;DHT22;13765;51.166;4.466;2022-12-24T11:48:00;12.50;99.90
25973;DHT22;13765;51.166;4.466;2022-12-24T11:50:35;12.50;99.90
25973;DHT22;13765;51.166;4.466;2022-12-24T11:53:09;12.60;99.90
25973;DHT22;13765;51.166;4.466;2022-12-24T12:01:22;12.90;99.90
25973;DHT22;13765;51.166;4.466;2022-12-24T12:04:20;12.80;99.90
25973;DHT22;13765;51.166;4.466;2022-12-24T12:09:31;13.10;99.90
25973;DHT22;13765;51.166;4.466;2022-12-24T12:12:04;13.20;99.90
25973;DHT22;13765;51.166;4.466;2022-12-24T12:25:21;13.20;99.90
25973;DHT22;13765;51.166;4.466;2022-12-24T12:27:51;13.20;99.90
25973;DHT22;13765;51.166;4.466;2022-12-24T12:30:20;13.30;99.90
25973;DHT22;13765;51.166;4.466;2022-12-24T12:33:01;13.30;99.90
25973;DHT22;13765;51.166;4.466;2022-12-24T12:35:41;13.20;99.90
25973;DHT22;13765;51.166;4.466;2022-12-24T12:38:22;13.20;99.90
25973;DHT22;13765;51.166;4.466;2022-12-24T12:57:33;13.40;99.90
25973;DHT22;13765;51.166;4.466;2022-12-24T13:00:08;13.40;99.90
25973;DHT22;13765;51.166;4.466;2022-12-24T13:14:02;13.30;99.90
25973;DHT22;13765;51.166;4.466;2022-12-24T13:21:43;13.50;99.90
25973;DHT22;13765;51.166;4.466;2022-12-24T13:24:17;13.40;99.90
25973;DHT22;13765;51.166;4.466;2022-12-24T13:27:05;13.20;99.90
25973;DHT22;13765;51.166;4.466;2022-12-24T13:29:49;13.10;99.90
25973;DHT22;13765;51.166;4.466;2022-12-24T13:34:55;12.90;99.90
25973;DHT22;13765;51.166;4.466;2022-12-24T13:40:02;13.00;99.90
25973;DHT22;13765;51.166;4.466;2022-12-24T13:50:53;13.00;99.90
25973;DHT22;13765;51.166;4.466;2022-12-24T13:53:31;12.80;99.90
25973;DHT22;13765;51.166;4.466;2022-12-24T13:56:19;12.80;99.90
25973;DHT22;13765;51.166;4.466;2022-12-24T13:59:19;12.80;99.90
25973;DHT22;13765;51.166;4.466;2022-12-24T14:01:47;12.80;99.90
25973;DHT22;13765;51.166;4.466;2022-12-24T14:04:34;12.80;99.90
25973;DHT22;13765;51.166;4.466;2022-12-24T14:07:03;12.80;99.90
25973;DHT22;13765;51.166;4.466;2022-12-24T14:09:33;12.90;99.90
25973;DHT22;13765;51.166;4.466;2022-12-24T14:14:36;12.90;99.90
25973;DHT22;13765;51.166;4.466;2022-12-24T14:17:44;13.00;99.90
25973;DHT22;13765;51.166;4.466;2022-12-24T14:20:07;13.00;99.90
25973;DHT22;13765;51.166;4.466;2022-12-24T14:22:44;12.90;99.90
25973;DHT22;13765;51.166;4.466;2022-12-24T14:28:11;12.80;99.90
25973;DHT22;13765;51.166;4.466;2022-12-24T14:30:41;12.70;99.90
25973;DHT22;13765;51.166;4.466;2022-12-24T14:33:30;12.80;99.90
25973;DHT22;13765;51.166;4.466;2022-12-24T14:35:57;12.80;99.90
25973;DHT22;13765;51.166;4.466;2022-12-24T14:38:24;12.70;99.90
25973;DHT22;13765;51.166;4.466;2022-12-24T14:40:56;12.70;99.90
25973;DHT22;13765;51.166;4.466;2022-12-24T14:48:55;12.90;99.90
25973;DHT22;13765;51.166;4.466;2022-12-24T14:51:33;12.90;99.90
25973;DHT22;13765;51.166;4.466;2022-12-24T15:02:45;12.90;99.90
25973;DHT22;13765;51.166;4.466;2022-12-24T15:05:15;12.90;99.90
25973;DHT22;13765;51.166;4.466;2022-12-24T15:07:47;13.00;99.90
25973;DHT22;13765;51.166;4.466;2022-12-24T15:10:25;13.00;99.90
25973;DHT22;13765;51.166;4.466;2022-12-24T15:12:53;13.00;99.90
25973;DHT22;13765;51.166;4.466;2022-12-24T15:15:22;13.00;99.90
25973;DHT22;13765;51.166;4.466;2022-12-24T15:17:48;12.90;99.90
25973;DHT22;13765;51.166;4.466;2022-12-24T15:20:22;12.90;99.90
25973;DHT22;13765;51.166;4.466;2022-12-24T15:22:51;12.80;99.90
25973;DHT22;13765;51.166;4.466;2022-12-24T15:25:22;12.80;99.90
25973;DHT22;13765;51.166;4.466;2022-12-24T15:27:53;12.80;99.90
25973;DHT22;13765;51.166;4.466;2022-12-24T15:30:28;12.80;99.90
25973;DHT22;13765;51.166;4.466;2022-12-24T15:32:56;12.80;99.90
25973;DHT22;13765;51.166;4.466;2022-12-24T15:35:55;12.80;99.90
25973;DHT22;13765;51.166;4.466;2022-12-24T15:38:30;12.70;99.90
25973;DHT22;13765;51.166;4.466;2022-12-24T15:40:57;12.70;99.90
25973;DHT22;13765;51.166;4.466;2022-12-24T15:43:26;12.60;99.90
25973;DHT22;13765;51.166;4.466;2022-12-24T15:45:54;12.50;99.90
25973;DHT22;13765;51.166;4.466;2022-12-24T15:48:24;12.50;99.90
25973;DHT22;13765;51.166;4.466;2022-12-24T15:50:58;12.50;99.90
25973;DHT22;13765;51.166;4.466;2022-12-24T15:53:32;12.50;99.90
25973;DHT22;13765;51.166;4.466;2022-12-24T15:58:42;12.50;99.90
25973;DHT22;13765;51.166;4.466;2022-12-24T16:03:41;12.60;99.90
25973;DHT22;13765;51.166;4.466;2022-12-24T16:06:19;12.60;99.90
25973;DHT22;13765;51.166;4.466;2022-12-24T16:08:47;12.50;99.90
25973;DHT22;13765;51.166;4.466;2022-12-24T16:11:25;12.50;99.90
25973;DHT22;13765;51.166;4.466;2022-12-24T16:16:41;12.50;99.90
25973;DHT22;13765;51.166;4.466;2022-12-24T16:19:28;12.40;99.90
25973;DHT22;13765;51.166;4.466;2022-12-24T16:21:58;12.40;99.90
25973;DHT22;13765;51.166;4.466;2022-12-24T16:24:47;12.30;99.90
25973;DHT22;13765;51.166;4.466;2022-12-24T16:27:13;12.20;99.90
25973;DHT22;13765;51.166;4.466;2022-12-24T16:29:43;12.10;99.90
25973;DHT22;13765;51.166;4.466;2022-12-24T16:32:33;12.10;99.90
25973;DHT22;13765;51.166;4.466;2022-12-24T16:35:03;12.00;99.90
25973;DHT22;13765;51.166;4.466;2022-12-24T16:37:34;11.90;99.90
25973;DHT22;13765;51.166;4.466;2022-12-24T16:40:00;11.90;99.90
25973;DHT22;13765;51.166;4.466;2022-12-24T16:42:26;11.90;99.90
25973;DHT22;13765;51.166;4.466;2022-12-24T16:45:10;11.80;99.90
25973;DHT22;13765;51.166;4.466;2022-12-24T16:47:38;11.70;99.90
25973;DHT22;13765;51.166;4.466;2022-12-24T16:50:12;11.60;99.90
25973;DHT22;13765;51.166;4.466;2022-12-24T16:52:38;11.70;99.90
25973;DHT22;13765;51.166;4.466;2022-12-24T16:55:05;11.70;99.90
25973;DHT22;13765;51.166;4.466;2022-12-24T16:57:32;11.70;99.90
25973;DHT22;13765;51.166;4.466;2022-12-24T16:59:58;11.70;99.90
25973;DHT22;13765;51.166;4.466;2022-12-24T17:02:28;11.70;99.90
25973;DHT22;13765;51.166;4.466;2022-12-24T17:04:55;11.70;99.90
25973;DHT22;13765;51.166;4.466;2022-12-24T17:07:20;11.70;99.90
25973;DHT22;13765;51.166;4.466;2022-12-24T17:09:46;11.80;99.90
25973;DHT22;13765;51.166;4.466;2022-12-24T17:12:13;11.80;99.90
25973;DHT22;13765;51.166;4.466;2022-12-24T17:14:39;11.80;99.90
25973;DHT22;13765;51.166;4.466;2022-12-24T17:17:05;11.70;99.90
25973;DHT22;13765;51.166;4.466;2022-12-24T17:19:33;11.80;99.90
25973;DHT22;13765;51.166;4.466;2022-12-24T17:21:59;11.70;99.90
25973;DHT22;13765;51.166;4.466;2022-12-24T17:24:28;11.60;99.90
25973;DHT22;13765;51.166;4.466;2022-12-24T17:26:55;11.60;99.90
25973;DHT22;13765;51.166;4.466;2022-12-24T17:29:22;11.60;99.90
25973;DHT22;13765;51.166;4.466;2022-12-24T17:31:47;11.70;99.90
25973;DHT22;13765;51.166;4.466;2022-12-24T17:34:13;11.60;99.90
25973;DHT22;13765;51.166;4.466;2022-12-24T17:36:44;11.60;99.90
25973;DHT22;13765;51.166;4.466;2022-12-24T17:39:10;11.60;99.90
25973;DHT22;13765;51.166;4.466;2022-12-24T17:41:36;11.50;99.90
25973;DHT22;13765;51.166;4.466;2022-12-24T17:44:02;11.50;99.90
25973;DHT22;13765;51.166;4.466;2022-12-24T17:46:33;11.40;99.90
25973;DHT22;13765;51.166;4.466;2022-12-24T17:48:59;11.40;99.90
25973;DHT22;13765;51.166;4.466;2022-12-24T17:51:28;11.30;99.90
25973;DHT22;13765;51.166;4.466;2022-12-24T17:53:55;11.30;99.90
25973;DHT22;13765;51.166;4.466;2022-12-24T17:56:21;11.30;99.90
25973;DHT22;13765;51.166;4.466;2022-12-24T17:58:47;11.30;99.90
25973;DHT22;13765;51.166;4.466;2022-12-24T18:01:19;11.30;99.90
25973;DHT22;13765;51.166;4.466;2022-12-24T18:03:49;11.20;99.90
25973;DHT22;13765;51.166;4.466;2022-12-24T18:06:19;11.20;99.90